This is the latest recevied weather packets stored in our database for station/object BMCB-35. If no packets are shown the sender has not sent any weather packets the latest 10 day(s).
| Time | Temp. | Humidity | Pressure | Rain* | Wind** | Luminosity | Snow |
|---|---|---|---|---|---|---|---|
| 1777455646 | 17.22° C | 35% | 1021.3 hPa | 0 mm | - | 678 W/m² | - |
| 1777454415 | 16.11° C | 35% | 1021.3 hPa | 0 mm | - | 646 W/m² | - |
| 1777454414 | 16.11° C | 36% | 1021.4 hPa | 0 mm | - | 628 W/m² | - |
| 1777453814 | 15.56° C | 36% | 1021.5 hPa | 0 mm | - | 608 W/m² | - |
| 1777452004 | 14.44° C | 37% | 1021.5 hPa | 0 mm | - | 548 W/m² | - |
| 1777450809 | 13.33° C | 41% | 1021.7 hPa | 0 mm | - | 500 W/m² | - |
| 1777448434 | 11.67° C | 44% | 1021.9 hPa | 0 mm | - | 398 W/m² | - |
| 1777446632 | 11.11° C | 45% | 1021.9 hPa | 0 mm | - | 314 W/m² | - |
| 1777438813 | 8.33° C | 57% | 1021.5 hPa | 0 mm | - | 9 W/m² | - |
| 1777429816 | 10° C | 54% | 1020.7 hPa | 0 mm | - | 0 W/m² | - |
| 1777429814 | 10° C | 54% | 1020.6 hPa | 0 mm | - | 0 W/m² | - |
| 1777427404 | 10.56° C | 53% | 1020.4 hPa | 0 mm | - | 0 W/m² | - |
| 1777422640 | 12.22° C | 51% | 1020.1 hPa | 0 mm | - | 0 W/m² | - |
| 1777422009 | 12.22° C | 50% | 1020.1 hPa | 0 mm | - | 0 W/m² | - |
| 1777421404 | 12.78° C | 48% | 1020 hPa | 0 mm | - | 0 W/m² | - |
| 1777420236 | 13.33° C | 47% | 1020 hPa | 0 mm | - | 0 W/m² | - |
| 1777419640 | 13.33° C | 47% | 1020 hPa | 0 mm | - | 0 W/m² | - |
| 1777411840 | 15° C | 48% | 1018.9 hPa | 0 mm | - | 0 W/m² | - |
| 1777411213 | 15° C | 47% | 1018.8 hPa | 0 mm | - | 0 W/m² | - |
| 1777408241 | 15.56° C | 40% | 1018.4 hPa | 0 mm | - | 0 W/m² | - |
| 1777407613 | 15.56° C | 41% | 1018.3 hPa | 0 mm | - | 0 W/m² | - |
| 1777407025 | 15.56° C | 42% | 1018.1 hPa | 0 mm | - | 0 W/m² | - |
| 1777404011 | 17.78° C | 32% | 1017.2 hPa | 0 mm | - | 0 W/m² | - |
| 1777402830 | 18.89° C | 29% | 1016.8 hPa | 0 mm | - | 0 W/m² | - |
| 1777398620 | 20.56° C | 30% | 1016 hPa | 0 mm | - | 41 W/m² | - |
* Rain latest hour (hover to see other rain measurements)
** Current wind speed in m/s (hover to see current wind gust speed)